createdAt,value
2023-09-10T00:00:46.831Z,100864.44
2023-09-10T00:03:13.761Z,100855.66
2023-09-10T00:05:40.659Z,100862.31
2023-09-10T00:08:07.366Z,100865.03
2023-09-10T00:10:36.219Z,100853.44
2023-09-10T00:13:03.371Z,100855.78
2023-09-10T00:15:33.860Z,100867.75
2023-09-10T00:18:01.223Z,100864.44
2023-09-10T00:20:30.443Z,100869.75
2023-09-10T00:22:57.772Z,100867.28
2023-09-10T00:25:26.379Z,100855.78
2023-09-10T00:27:55.243Z,100863.69
2023-09-10T00:30:21.881Z,100860.66
2023-09-10T00:32:48.642Z,100864.19
2023-09-10T00:35:20.606Z,100871.81
2023-09-10T00:37:50.704Z,100872.63
2023-09-10T00:40:17.495Z,100874.47
2023-09-10T00:42:44.491Z,100870.25
2023-09-10T00:45:12.740Z,100863.69
2023-09-10T00:47:44.363Z,100873.31
2023-09-10T00:50:12.013Z,100868.75
2023-09-10T00:52:48.000Z,100873.44
2023-09-10T00:55:18.738Z,100873.19
2023-09-10T00:57:46.023Z,100877.84
2023-09-10T01:00:21.485Z,100878.13
2023-09-10T01:02:52.029Z,100882.66
2023-09-10T01:05:19.139Z,100876.44
2023-09-10T01:07:50.932Z,100876.81
2023-09-10T01:10:18.087Z,100879.03
2023-09-10T01:13:09.224Z,100881.13
2023-09-10T01:16:03.711Z,100879.81
2023-09-10T01:18:48.031Z,100883.78
2023-09-10T01:21:44.656Z,100877.72
2023-09-10T01:24:43.270Z,100870.34
2023-09-10T01:27:10.170Z,100875.13
2023-09-10T01:29:36.830Z,100874.22
2023-09-10T01:32:06.888Z,100862.81
2023-09-10T01:34:47.838Z,100863.28
2023-09-10T01:37:24.865Z,100865.34
2023-09-10T01:39:55.536Z,100860.72
2023-09-10T01:42:24.592Z,100864.31
2023-09-10T01:44:52.452Z,100864.25
2023-09-10T01:47:19.474Z,100854.88
2023-09-10T01:49:46.513Z,100868.38
2023-09-10T01:52:13.345Z,100864.75
2023-09-10T01:54:40.164Z,100865.50
2023-09-10T01:57:07.368Z,100866.47
2023-09-10T01:59:36.569Z,100875.22
2023-09-10T02:02:03.856Z,100869.94
2023-09-10T02:04:30.625Z,100876.72
2023-09-10T02:06:57.343Z,100877.00
2023-09-10T02:09:23.987Z,100877.81
2023-09-10T02:11:51.817Z,100875.69
2023-09-10T02:14:18.568Z,100875.31
2023-09-10T02:16:45.307Z,100870.31
2023-09-10T02:19:12.193Z,100874.34
2023-09-10T02:21:39.256Z,100873.19
2023-09-10T02:24:06.361Z,100879.22
2023-09-10T02:26:33.086Z,100870.63
2023-09-10T02:29:00.023Z,100877.28
2023-09-10T02:31:29.913Z,100873.06
2023-09-10T02:33:56.603Z,100874.69
2023-09-10T02:36:26.347Z,100874.53
2023-09-10T02:38:53.372Z,100877.06
2023-09-10T02:41:21.263Z,100879.34
2023-09-10T02:43:49.174Z,100880.72
2023-09-10T02:46:18.953Z,100882.47
2023-09-10T02:48:45.746Z,100881.66
2023-09-10T02:51:15.325Z,100884.22
2023-09-10T02:53:42.266Z,100876.94
2023-09-10T02:56:10.784Z,100875.00
2023-09-10T02:58:38.015Z,100874.47
2023-09-10T03:01:06.356Z,100880.63
2023-09-10T03:03:34.653Z,100881.59
2023-09-10T03:06:03.487Z,100876.13
2023-09-10T03:08:30.309Z,100872.75
2023-09-10T03:10:57.006Z,100876.31
2023-09-10T03:13:23.723Z,100870.72
2023-09-10T03:15:50.406Z,100870.53
2023-09-10T03:18:17.104Z,100868.13
2023-09-10T03:20:50.252Z,100872.22
2023-09-10T03:23:17.040Z,100875.00
2023-09-10T03:25:46.772Z,100881.38
2023-09-10T03:28:13.438Z,100874.25
2023-09-10T03:30:40.110Z,100874.06
2023-09-10T03:33:06.884Z,100873.06
2023-09-10T03:35:33.753Z,100871.34
2023-09-10T03:38:04.611Z,100866.06
2023-09-10T03:40:31.875Z,100872.16
2023-09-10T03:43:01.255Z,100868.41
2023-09-10T03:45:27.968Z,100862.00
2023-09-10T03:47:55.196Z,100865.03
2023-09-10T03:50:21.992Z,100864.53
2023-09-10T03:52:48.687Z,100862.13
2023-09-10T03:55:15.432Z,100866.16
2023-09-10T03:57:47.469Z,100869.16
2023-09-10T04:00:15.510Z,100879.25
2023-09-10T04:02:44.591Z,100864.41
2023-09-10T04:05:17.313Z,100866.66
2023-09-10T04:07:46.170Z,100868.97
2023-09-10T04:10:12.898Z,100870.13
2023-09-10T04:12:42.823Z,100878.38
2023-09-10T04:15:13.120Z,100878.44
2023-09-10T04:17:40.071Z,100879.59
2023-09-10T04:20:10.084Z,100871.28
2023-09-10T04:22:41.963Z,100879.50
2023-09-10T04:25:14.400Z,100875.44
2023-09-10T04:27:42.056Z,100871.63
2023-09-10T04:30:13.190Z,100882.88
2023-09-10T04:32:39.956Z,100870.13
2023-09-10T04:35:09.980Z,100877.56
2023-09-10T04:37:37.380Z,100880.38
2023-09-10T04:40:06.117Z,100878.38
2023-09-10T04:42:34.702Z,100888.34
2023-09-10T04:45:01.564Z,100887.03
2023-09-10T04:47:28.570Z,100886.41
2023-09-10T04:49:55.799Z,100882.47
2023-09-10T04:52:22.656Z,100885.03
2023-09-10T04:54:52.729Z,100876.97
2023-09-10T04:57:20.997Z,100885.03
2023-09-10T04:59:50.291Z,100893.13
2023-09-10T05:02:22.366Z,100890.94
2023-09-10T05:04:50.668Z,100893.25
2023-09-10T05:07:17.352Z,100891.81
2023-09-10T05:09:46.910Z,100893.44
2023-09-10T05:12:13.660Z,100894.59
2023-09-10T05:14:43.826Z,100887.53
2023-09-10T05:17:10.853Z,100890.72
2023-09-10T05:19:39.825Z,100886.53
2023-09-10T05:22:06.612Z,100893.03
2023-09-10T05:24:33.358Z,100889.75
2023-09-10T05:27:00.051Z,100894.03
2023-09-10T05:29:31.596Z,100895.88
2023-09-10T05:32:00.529Z,100900.69
2023-09-10T05:34:27.314Z,100895.31
2023-09-10T05:36:53.986Z,100897.81
2023-09-10T05:39:20.775Z,100902.28
2023-09-10T05:41:47.518Z,100907.81
2023-09-10T05:44:20.950Z,100908.16
2023-09-10T05:46:48.199Z,100909.13
2023-09-10T05:49:14.905Z,100912.97
2023-09-10T05:51:53.581Z,100913.00
2023-09-10T05:54:20.339Z,100913.22
2023-09-10T05:56:47.194Z,100918.13
2023-09-10T05:59:14.056Z,100912.63
2023-09-10T06:01:40.950Z,100924.47
2023-09-10T06:04:08.830Z,100930.75
2023-09-10T06:06:35.555Z,100932.34
2023-09-10T06:09:02.519Z,100927.84
2023-09-10T06:11:34.916Z,100924.84
2023-09-10T06:14:01.818Z,100931.75
2023-09-10T06:16:29.736Z,100929.66
2023-09-10T06:18:56.612Z,100936.81
2023-09-10T06:21:25.453Z,100938.97
2023-09-10T06:23:52.115Z,100939.19
2023-09-10T06:26:19.063Z,100939.00
2023-09-10T06:28:46.433Z,100941.44
2023-09-10T06:31:13.510Z,100951.19
2023-09-10T06:33:40.241Z,100947.91
2023-09-10T06:36:07.372Z,100953.25
2023-09-10T06:38:34.235Z,100951.84
2023-09-10T06:41:04.779Z,100954.34
2023-09-10T06:43:33.169Z,100946.03
2023-09-10T06:45:59.934Z,100943.66
2023-09-10T06:48:26.605Z,100943.50
2023-09-10T06:50:53.286Z,100953.41
2023-09-10T06:53:19.999Z,100954.47
2023-09-10T06:55:46.822Z,100951.66
2023-09-10T06:58:13.707Z,100952.50
2023-09-10T07:00:40.537Z,100953.69
2023-09-10T07:03:10.276Z,100958.59
2023-09-10T07:08:06.233Z,100957.63
2023-09-10T07:10:33.526Z,100962.25
2023-09-10T07:13:02.982Z,100961.69
2023-09-10T07:15:29.802Z,100959.63
2023-09-10T07:17:56.833Z,100959.88
2023-09-10T07:20:24.048Z,100963.38
2023-09-10T07:22:50.996Z,100959.06
2023-09-10T07:25:17.897Z,100955.59
2023-09-10T07:27:44.563Z,100971.81
2023-09-10T07:30:11.766Z,100967.59
2023-09-10T07:32:41.814Z,100966.94
2023-09-10T07:35:10.431Z,100970.13
2023-09-10T07:37:37.130Z,100970.13
2023-09-10T07:40:04.185Z,100966.94
2023-09-10T07:42:40.008Z,100973.09
2023-09-10T07:45:10.503Z,100969.53
2023-09-10T07:47:37.301Z,100976.38
2023-09-10T07:50:04.240Z,100967.75
2023-09-10T07:52:30.918Z,100975.88
2023-09-10T07:55:00.983Z,100975.22
2023-09-10T07:57:27.687Z,100972.16
2023-09-10T07:59:57.581Z,100968.69
2023-09-10T08:02:31.293Z,100967.50
2023-09-10T08:04:58.437Z,100968.25
2023-09-10T08:07:25.226Z,100972.00
2023-09-10T08:09:54.921Z,100974.03
2023-09-10T08:12:23.755Z,100972.44
2023-09-10T08:15:04.182Z,100964.34
2023-09-10T08:17:33.407Z,100963.91
2023-09-10T08:20:02.113Z,100965.16
2023-09-10T08:22:28.863Z,100961.94
2023-09-10T08:24:55.674Z,100972.09
2023-09-10T08:27:23.997Z,100963.97
2023-09-10T08:29:50.967Z,100963.19
2023-09-10T08:32:17.992Z,100971.78
2023-09-10T08:34:44.838Z,100973.53
2023-09-10T08:37:11.495Z,100971.13
2023-09-10T08:39:38.945Z,100965.03
2023-09-10T08:42:33.820Z,100969.47
2023-09-10T08:45:07.169Z,100967.09
2023-09-10T08:47:41.017Z,100966.25
2023-09-10T08:50:12.741Z,100963.03
2023-09-10T08:52:43.208Z,100963.81
2023-09-10T08:55:22.462Z,100965.44
2023-09-10T08:57:51.791Z,100953.28
2023-09-10T09:00:20.008Z,100956.16
2023-09-10T09:02:47.711Z,100962.28
2023-09-10T09:05:16.141Z,100953.75
2023-09-10T09:07:56.955Z,100958.19
2023-09-10T09:10:26.754Z,100959.69
2023-09-10T09:12:58.235Z,100956.34
2023-09-10T09:15:26.457Z,100957.94
2023-09-10T09:17:57.924Z,100953.47
2023-09-10T09:20:26.229Z,100958.09
2023-09-10T09:23:03.978Z,100952.84
2023-09-10T09:25:32.275Z,100953.38
2023-09-10T09:28:01.758Z,100945.53
2023-09-10T09:30:30.465Z,100955.69
2023-09-10T09:32:57.828Z,100947.50
2023-09-10T09:35:26.357Z,100946.81
2023-09-10T09:37:54.383Z,100943.94
2023-09-10T09:40:21.720Z,100938.41
2023-09-10T09:42:51.976Z,100934.38
2023-09-10T09:45:21.894Z,100935.19
2023-09-10T09:47:48.768Z,100926.53
2023-09-10T09:50:16.180Z,100916.94
2023-09-10T09:52:44.985Z,100925.81
2023-09-10T09:55:13.178Z,100923.63
2023-09-10T09:57:39.975Z,100925.81
2023-09-10T10:00:09.198Z,100920.63
2023-09-10T10:02:36.135Z,100916.91
2023-09-10T10:05:03.551Z,100916.84
2023-09-10T10:07:42.082Z,100911.72
2023-09-10T10:10:20.297Z,100911.94
2023-09-10T10:12:55.639Z,100912.00
2023-09-10T10:15:24.034Z,100915.94
2023-09-10T10:17:53.400Z,100909.38
2023-09-10T10:20:22.074Z,100912.06
2023-09-10T10:22:49.832Z,100910.22
2023-09-10T10:25:16.714Z,100901.63
2023-09-10T10:27:44.236Z,100905.06
2023-09-10T10:30:11.503Z,100895.09
2023-09-10T10:32:43.585Z,100898.44
2023-09-10T10:35:11.152Z,100890.69
2023-09-10T10:37:53.334Z,100896.25
2023-09-10T10:40:32.323Z,100890.59
2023-09-10T10:43:14.231Z,100886.97
2023-09-10T10:45:46.324Z,100893.47
2023-09-10T10:48:20.724Z,100882.06
2023-09-10T10:50:50.438Z,100886.22
2023-09-10T10:53:28.534Z,100888.53
2023-09-10T10:55:57.618Z,100882.13
2023-09-10T10:58:26.091Z,100878.22
2023-09-10T11:00:55.007Z,100885.06
2023-09-10T11:03:26.048Z,100870.00
2023-09-10T11:05:55.872Z,100869.63
2023-09-10T11:08:26.310Z,100865.47
2023-09-10T11:10:58.600Z,100865.44
2023-09-10T11:13:26.621Z,100869.88
2023-09-10T11:16:08.640Z,100860.16
2023-09-10T11:18:41.922Z,100860.66
2023-09-10T11:21:08.554Z,100867.13
2023-09-10T11:23:38.402Z,100858.56
2023-09-10T11:26:17.402Z,100856.13
2023-09-10T11:28:49.494Z,100854.84
2023-09-10T11:31:34.468Z,100860.50
2023-09-10T11:34:16.273Z,100857.28
2023-09-10T11:36:50.978Z,100848.34
2023-09-10T11:39:19.234Z,100846.72
2023-09-10T11:41:58.552Z,100845.91
2023-09-10T11:44:25.729Z,100842.25
2023-09-10T11:46:53.504Z,100838.97
2023-09-10T11:49:21.897Z,100840.19
2023-09-10T11:51:57.026Z,100828.66
2023-09-10T11:54:24.061Z,100826.94
2023-09-10T11:56:53.186Z,100830.69
2023-09-10T11:59:23.316Z,100824.91
2023-09-10T12:01:50.424Z,100826.88
2023-09-10T12:04:19.443Z,100820.44
2023-09-10T12:06:46.671Z,100819.16
2023-09-10T12:09:13.488Z,100825.66
2023-09-10T12:11:41.147Z,100817.09
2023-09-10T12:14:08.369Z,100825.28
2023-09-10T12:16:35.259Z,100816.75
2023-09-10T12:19:06.220Z,100813.47
2023-09-10T12:21:44.942Z,100805.31
2023-09-10T12:24:12.887Z,100806.53
2023-09-10T12:26:44.020Z,100802.78
2023-09-10T12:29:15.235Z,100797.53
2023-09-10T12:31:46.393Z,100799.53
2023-09-10T12:34:14.714Z,100805.22
2023-09-10T12:36:44.749Z,100803.19
2023-09-10T12:39:25.398Z,100803.69
2023-09-10T12:41:54.878Z,100800.84
2023-09-10T12:44:25.331Z,100802.44
2023-09-10T12:46:53.586Z,100792.72
2023-09-10T12:49:21.260Z,100792.78
2023-09-10T12:51:48.941Z,100793.63
2023-09-10T12:54:16.301Z,100796.84
2023-09-10T12:56:43.019Z,100796.81
2023-09-10T12:59:10.108Z,100787.09
2023-09-10T13:01:40.771Z,100795.16
2023-09-10T13:04:08.459Z,100791.88
2023-09-10T13:06:35.411Z,100786.19
2023-09-10T13:09:04.189Z,100783.31
2023-09-10T13:11:31.210Z,100773.88
2023-09-10T13:14:03.219Z,100778.72
2023-09-10T13:16:30.865Z,100775.00
2023-09-10T13:18:57.779Z,100779.06
2023-09-10T13:21:24.655Z,100778.25
2023-09-10T13:23:51.595Z,100773.41
2023-09-10T13:26:18.478Z,100780.34
2023-09-10T13:28:45.275Z,100775.53
2023-09-10T13:31:12.005Z,100767.84
2023-09-10T13:33:38.926Z,100776.03
2023-09-10T13:36:06.404Z,100777.22
2023-09-10T13:38:33.149Z,100764.94
2023-09-10T13:40:59.928Z,100769.84
2023-09-10T13:43:30.998Z,100771.41
2023-09-10T13:45:58.043Z,100760.13
2023-09-10T13:48:24.974Z,100759.25
2023-09-10T13:50:52.532Z,100763.28
2023-09-10T13:53:19.450Z,100764.13
2023-09-10T13:55:46.374Z,100752.75
2023-09-10T13:58:13.061Z,100760.06
2023-09-10T14:00:39.793Z,100753.16
2023-09-10T14:03:06.695Z,100753.16
2023-09-10T14:05:33.703Z,100754.41
2023-09-10T14:08:00.473Z,100755.19
2023-09-10T14:10:27.190Z,100755.97
2023-09-10T14:12:53.984Z,100749.50
2023-09-10T14:15:21.425Z,100739.44
2023-09-10T14:17:48.354Z,100743.81
2023-09-10T14:20:15.366Z,100744.56
2023-09-10T14:22:42.102Z,100750.69
2023-09-10T14:25:09.237Z,100740.97
2023-09-10T14:27:35.967Z,100746.66
2023-09-10T14:30:02.753Z,100742.97
2023-09-10T14:32:29.593Z,100742.56
2023-09-10T14:34:56.465Z,100741.38
2023-09-10T14:37:23.147Z,100743.03
2023-09-10T14:39:52.878Z,100740.56
2023-09-10T14:42:19.632Z,100730.84
2023-09-10T14:44:46.386Z,100737.81
2023-09-10T14:47:13.149Z,100737.38
2023-09-10T14:49:39.882Z,100733.75
2023-09-10T14:52:06.960Z,100734.19
2023-09-10T14:54:33.674Z,100736.63
2023-09-10T14:57:00.698Z,100735.81
2023-09-10T14:59:27.663Z,100731.34
2023-09-10T15:01:54.352Z,100737.47
2023-09-10T15:04:21.264Z,100725.25
2023-09-10T15:06:48.147Z,100726.09
2023-09-10T15:09:15.036Z,100720.81
2023-09-10T15:11:41.769Z,100721.22
2023-09-10T15:14:08.435Z,100720.81
2023-09-10T15:16:35.218Z,100723.66
2023-09-10T15:19:01.938Z,100721.25
2023-09-10T15:21:28.686Z,100717.19
2023-09-10T15:23:55.349Z,100716.38
2023-09-10T15:26:22.102Z,100723.28
2023-09-10T15:28:48.896Z,100713.19
2023-09-10T15:31:15.878Z,100718.03
2023-09-10T15:33:43.448Z,100713.16
2023-09-10T15:36:10.441Z,100717.63
2023-09-10T15:38:37.128Z,100717.25
2023-09-10T15:41:06.753Z,100707.56
2023-09-10T15:43:33.508Z,100711.22
2023-09-10T15:46:00.237Z,100701.06
2023-09-10T15:48:27.082Z,100715.69
2023-09-10T15:50:54.080Z,100710.78
2023-09-10T15:53:21.017Z,100705.13
2023-09-10T15:55:47.922Z,100712.47
2023-09-10T15:58:14.652Z,100707.19
2023-09-10T16:00:41.441Z,100710.03
2023-09-10T16:03:08.381Z,100711.69
2023-09-10T16:05:35.177Z,100712.91
2023-09-10T16:08:02.001Z,100714.94
2023-09-10T16:10:28.759Z,100713.31
2023-09-10T16:12:55.564Z,100710.09
2023-09-10T16:15:22.331Z,100712.94
2023-09-10T16:17:49.597Z,100716.63
2023-09-10T16:20:16.452Z,100719.00
2023-09-10T16:22:43.243Z,100714.16
2023-09-10T16:25:10.093Z,100721.44
2023-09-10T16:27:36.759Z,100718.59
2023-09-10T16:30:04.533Z,100714.94
2023-09-10T16:32:31.275Z,100722.22
2023-09-10T16:34:58.267Z,100723.03
2023-09-10T16:37:24.989Z,100723.03
2023-09-10T16:39:51.750Z,100719.31
2023-09-10T16:42:18.402Z,100721.31
2023-09-10T16:44:47.165Z,100723.72
2023-09-10T16:47:13.974Z,100718.84
2023-09-10T16:49:40.806Z,100718.41
2023-09-10T16:52:07.518Z,100723.25
2023-09-10T16:54:34.264Z,100715.91
2023-09-10T16:57:01.013Z,100726.03
2023-09-10T16:59:28.465Z,100718.69
2023-09-10T17:01:55.177Z,100723.06
2023-09-10T17:04:21.896Z,100721.41
2023-09-10T17:06:50.733Z,100722.56
2023-09-10T17:09:17.397Z,100726.97
2023-09-10T17:11:44.145Z,100725.28
2023-09-10T17:14:10.905Z,100723.25
2023-09-10T17:16:37.627Z,100733.28
2023-09-10T17:19:04.616Z,100726.72
2023-09-10T17:21:31.331Z,100726.25
2023-09-10T17:23:58.128Z,100733.47
2023-09-10T17:26:25.003Z,100731.88
2023-09-10T17:28:51.887Z,100730.19
2023-09-10T17:31:18.648Z,100742.28
2023-09-10T17:33:45.382Z,100728.47
2023-09-10T17:36:12.778Z,100736.53
2023-09-10T17:38:41.217Z,100731.63
2023-09-10T17:41:08.038Z,100734.81
2023-09-10T17:43:34.930Z,100740.00
2023-09-10T17:46:01.663Z,100735.09
2023-09-10T17:48:28.524Z,100737.09
2023-09-10T17:50:57.996Z,100746.31
2023-09-10T17:53:24.684Z,100741.00
2023-09-10T17:55:51.404Z,100736.81
2023-09-10T17:58:18.139Z,100735.03
2023-09-10T18:00:44.849Z,100730.47
2023-09-10T18:03:15.385Z,100736.03
2023-09-10T18:05:42.627Z,100737.59
2023-09-10T18:08:09.582Z,100741.63
2023-09-10T18:10:36.394Z,100740.41
2023-09-10T18:13:03.338Z,100740.72
2023-09-10T18:15:30.279Z,100746.31
2023-09-10T18:17:57.440Z,100741.84
2023-09-10T18:20:26.561Z,100746.31
2023-09-10T18:22:57.146Z,100742.56
2023-09-10T18:25:23.895Z,100744.16
2023-09-10T18:27:52.338Z,100745.25
2023-09-10T18:30:19.112Z,100749.63
2023-09-10T18:32:45.930Z,100745.13
2023-09-10T18:35:12.705Z,100751.16
2023-09-10T18:37:39.397Z,100744.25
2023-09-10T18:40:07.502Z,100750.66
2023-09-10T18:42:34.216Z,100751.75
2023-09-10T18:45:00.923Z,100746.75
2023-09-10T18:47:27.629Z,100749.13
2023-09-10T18:49:54.407Z,100750.97
2023-09-10T18:52:21.213Z,100751.28
2023-09-10T18:54:48.008Z,100744.78
2023-09-10T18:57:14.679Z,100745.97
2023-09-10T18:59:42.394Z,100748.72
2023-09-10T19:02:09.337Z,100747.09
2023-09-10T19:04:37.747Z,100744.13
2023-09-10T19:07:04.811Z,100742.91
2023-09-10T19:09:31.552Z,100748.13
2023-09-10T19:11:58.422Z,100752.56
2023-09-10T19:14:25.540Z,100750.41
2023-09-10T19:16:52.890Z,100753.59
2023-09-10T19:19:19.616Z,100749.50
2023-09-10T19:21:47.359Z,100748.69
2023-09-10T19:24:14.742Z,100749.84
2023-09-10T19:26:41.821Z,100748.28
2023-09-10T19:29:08.844Z,100754.66
2023-09-10T19:31:35.663Z,100751.31
2023-09-10T19:34:04.294Z,100757.44
2023-09-10T19:36:32.657Z,100757.38
2023-09-10T19:38:59.453Z,100756.81
2023-09-10T19:41:26.383Z,100763.84
2023-09-10T19:43:53.066Z,100761.97
2023-09-10T19:46:20.816Z,100758.63
2023-09-10T19:48:49.077Z,100765.88
2023-09-10T19:51:15.762Z,100755.34
2023-09-10T19:53:42.752Z,100759.50
2023-09-10T19:56:09.898Z,100756.16
2023-09-10T19:58:36.689Z,100752.44
2023-09-10T20:01:03.547Z,100756.84
2023-09-10T20:03:31.095Z,100749.03
2023-09-10T20:05:59.002Z,100750.66
2023-09-10T20:08:26.875Z,100759.19
2023-09-10T20:10:54.483Z,100750.94
2023-09-10T20:13:21.320Z,100752.88
2023-09-10T20:15:47.991Z,100749.81
2023-09-10T20:18:14.730Z,100752.19
2023-09-10T20:20:41.749Z,100746.84
2023-09-10T20:23:08.651Z,100744.91
2023-09-10T20:25:35.523Z,100748.03
2023-09-10T20:28:02.228Z,100749.56
2023-09-10T20:30:28.966Z,100746.00
2023-09-10T20:32:55.919Z,100753.13
2023-09-10T20:35:23.342Z,100749.38
2023-09-10T20:37:50.085Z,100743.53
2023-09-10T20:40:16.798Z,100741.38
2023-09-10T20:42:43.497Z,100733.81
2023-09-10T20:45:10.558Z,100748.38
2023-09-10T20:47:39.928Z,100747.84
2023-09-10T20:50:07.203Z,100751.56
2023-09-10T20:52:33.891Z,100750.75
2023-09-10T20:55:00.545Z,100732.19
2023-09-10T20:57:27.291Z,100749.69
2023-09-10T20:59:53.977Z,100744.50
2023-09-10T21:02:20.690Z,100741.28
2023-09-10T21:04:47.664Z,100756.13
2023-09-10T21:07:14.624Z,100741.59
2023-09-10T21:09:41.415Z,100742.16
2023-09-10T21:12:08.431Z,100747.06
2023-09-10T21:14:42.796Z,100751.81
2023-09-10T21:17:11.046Z,100746.91
2023-09-10T21:19:37.926Z,100745.97
2023-09-10T21:22:05.040Z,100746.69
2023-09-10T21:24:32.298Z,100739.81
2023-09-10T21:27:02.409Z,100744.97
2023-09-10T21:29:29.245Z,100738.44
2023-09-10T21:31:56.117Z,100751.16
2023-09-10T21:34:23.499Z,100744.78
2023-09-10T21:36:51.170Z,100737.19
2023-09-10T21:39:17.866Z,100737.53
2023-09-10T21:41:44.679Z,100741.09
2023-09-10T21:44:11.499Z,100743.25
2023-09-10T21:46:38.202Z,100741.19
2023-09-10T21:49:08.924Z,100747.69
2023-09-10T21:51:36.776Z,100748.88
2023-09-10T21:54:03.649Z,100752.25
2023-09-10T21:56:35.239Z,100754.03
2023-09-10T21:59:05.193Z,100752.84
2023-09-10T22:01:31.938Z,100755.91
2023-09-10T22:04:02.011Z,100755.09
2023-09-10T22:06:28.812Z,100748.31
2023-09-10T22:08:58.255Z,100746.31
2023-09-10T22:11:25.400Z,100747.25
2023-09-10T22:13:55.356Z,100750.28
2023-09-10T22:16:22.118Z,100756.53
2023-09-10T22:18:51.720Z,100755.72
2023-09-10T22:21:21.243Z,100754.78
2023-09-10T22:23:47.943Z,100747.44
2023-09-10T22:26:14.882Z,100750.41
2023-09-10T22:28:46.075Z,100753.31
2023-09-10T22:31:15.323Z,100759.81
2023-09-10T22:33:43.290Z,100744.81
2023-09-10T22:36:23.409Z,100752.34
2023-09-10T22:38:57.498Z,100754.91
2023-09-10T22:41:24.180Z,100756.34
2023-09-10T22:43:55.611Z,100752.34
2023-09-10T22:46:22.339Z,100760.69
2023-09-10T22:48:49.222Z,100756.34
2023-09-10T22:51:19.145Z,100756.25
2023-09-10T22:53:47.621Z,100753.59
2023-09-10T22:56:17.017Z,100747.63
2023-09-10T22:58:43.691Z,100757.94
2023-09-10T23:01:10.534Z,100754.50
2023-09-10T23:03:37.545Z,100745.16
2023-09-10T23:06:07.355Z,100744.00
2023-09-10T23:08:37.344Z,100742.38
2023-09-10T23:11:04.995Z,100730.19
2023-09-10T23:13:36.149Z,100735.00
2023-09-10T23:16:04.143Z,100727.75
2023-09-10T23:18:31.171Z,100732.78
2023-09-10T23:21:00.693Z,100728.09
2023-09-10T23:23:27.637Z,100725.28
2023-09-10T23:25:55.424Z,100720.72
2023-09-10T23:28:22.432Z,100729.38
2023-09-10T23:30:49.331Z,100725.63
2023-09-10T23:33:16.087Z,100730.31
2023-09-10T23:35:42.880Z,100725.28
2023-09-10T23:38:10.010Z,100723.19
2023-09-10T23:40:38.732Z,100713.31
2023-09-10T23:43:08.411Z,100723.03
2023-09-10T23:45:35.049Z,100719.31
2023-09-10T23:48:04.996Z,100722.47
2023-09-10T23:50:31.960Z,100722.22
2023-09-10T23:52:58.665Z,100725.63
2023-09-10T23:55:25.332Z,100721.91
2023-09-10T23:57:54.860Z,100724.34
